createdAt,value
2022-10-06T00:02:35.718Z,0.30
2022-10-06T00:12:45.199Z,0.50
2022-10-06T00:22:50.087Z,0.50
2022-10-06T00:32:57.338Z,0.40
2022-10-06T00:43:02.632Z,0.73
2022-10-06T00:53:07.792Z,0.50
2022-10-06T01:03:15.803Z,0.40
2022-10-06T01:13:20.567Z,0.98
2022-10-06T01:23:25.018Z,0.50
2022-10-06T01:33:29.780Z,0.40
2022-10-06T01:43:34.217Z,0.50
2022-10-06T01:53:37.390Z,0.90
2022-10-06T02:03:42.975Z,0.80
2022-10-06T02:13:46.061Z,0.70
2022-10-06T02:23:51.454Z,0.90
2022-10-06T02:33:55.295Z,1.10
2022-10-06T02:44:00.814Z,1.00
2022-10-06T02:54:03.904Z,1.20
2022-10-06T03:04:08.228Z,0.90
2022-10-06T03:14:11.160Z,1.10
2022-10-06T03:24:16.099Z,1.17
2022-10-06T03:34:22.419Z,1.08
2022-10-06T03:44:27.323Z,0.90
2022-10-06T03:54:30.439Z,0.80
2022-10-06T04:04:35.108Z,1.00
2022-10-06T04:14:50.653Z,0.70
2022-10-06T04:24:56.005Z,1.60
2022-10-06T04:34:58.885Z,1.00
2022-10-06T04:45:05.063Z,1.00
2022-10-06T04:55:11.175Z,1.13
2022-10-06T05:05:16.368Z,0.80
2022-10-06T05:15:19.402Z,1.23
2022-10-06T05:25:24.430Z,1.13
2022-10-06T05:35:28.052Z,1.40
2022-10-06T05:45:32.592Z,1.50
2022-10-06T05:55:35.697Z,1.30
2022-10-06T06:05:43.057Z,1.10
2022-10-06T06:16:01.369Z,1.03
2022-10-06T06:26:09.008Z,1.60
2022-10-06T06:36:18.078Z,1.33
2022-10-06T06:46:25.205Z,1.60
2022-10-06T06:56:39.006Z,1.10
2022-10-06T07:06:59.574Z,1.10
2022-10-06T07:17:24.252Z,1.50
2022-10-06T07:27:31.000Z,1.63
2022-10-06T07:37:36.723Z,1.50
2022-10-06T07:47:41.453Z,1.87
2022-10-06T07:57:46.296Z,1.53
2022-10-06T08:07:50.524Z,1.43
2022-10-06T08:17:54.174Z,1.50
2022-10-06T08:27:58.422Z,1.10
2022-10-06T08:38:01.402Z,1.83
2022-10-06T08:48:11.137Z,1.93
2022-10-06T08:58:29.232Z,1.60
2022-10-06T09:08:45.376Z,1.52
2022-10-06T09:19:09.270Z,2.00
2022-10-06T09:29:14.818Z,1.00
2022-10-06T09:39:27.812Z,1.20
2022-10-06T09:49:32.402Z,1.20
2022-10-06T09:59:40.162Z,1.07
2022-10-06T10:19:54.543Z,0.80
2022-10-06T10:30:05.894Z,0.87
2022-10-06T10:40:16.163Z,0.80
2022-10-06T10:50:26.650Z,0.60
2022-10-06T11:00:35.479Z,0.43
2022-10-06T11:10:47.518Z,0.70
2022-10-06T11:20:54.287Z,0.70
2022-10-06T11:31:05.047Z,0.63
2022-10-06T11:41:14.024Z,0.67
2022-10-06T11:51:31.902Z,0.73
2022-10-06T12:01:53.529Z,0.57
2022-10-06T12:11:59.997Z,1.00
2022-10-06T12:22:16.976Z,0.50
2022-10-06T12:32:41.515Z,0.40
2022-10-06T12:42:44.491Z,0.50
2022-10-06T12:52:54.222Z,0.70
2022-10-06T13:02:58.512Z,0.73
2022-10-06T13:13:02.791Z,0.60
2022-10-06T13:23:15.870Z,0.60
2022-10-06T13:33:21.410Z,0.50
2022-10-06T13:43:24.645Z,0.53
2022-10-06T13:53:31.596Z,0.67
2022-10-06T14:13:48.443Z,0.57
2022-10-06T14:23:53.307Z,0.70
2022-10-06T14:33:58.016Z,0.50
2022-10-06T14:44:03.579Z,0.40
2022-10-06T14:54:10.540Z,0.70
2022-10-06T15:04:15.357Z,0.67
2022-10-06T15:14:19.618Z,0.90
2022-10-06T15:24:22.395Z,1.20
2022-10-06T15:34:27.914Z,1.10
2022-10-06T15:44:34.674Z,1.47
2022-10-06T15:54:41.187Z,1.70
2022-10-06T16:04:57.390Z,0.70
2022-10-06T16:15:01.570Z,0.80
2022-10-06T16:25:04.952Z,0.77
2022-10-06T16:35:11.765Z,0.80
2022-10-06T16:45:17.579Z,1.00
2022-10-06T16:55:21.906Z,0.80
2022-10-06T17:05:24.918Z,1.00
2022-10-06T17:15:33.337Z,1.10
2022-10-06T17:25:36.933Z,1.50
2022-10-06T17:35:41.159Z,1.20
2022-10-06T17:45:44.002Z,1.80
2022-10-06T17:55:49.484Z,2.03
2022-10-06T18:05:58.878Z,2.20
2022-10-06T18:16:03.972Z,2.10
2022-10-06T18:26:07.039Z,3.27
2022-10-06T18:36:14.641Z,3.20
2022-10-06T18:46:36.753Z,3.60
2022-10-06T18:56:41.036Z,2.80
2022-10-06T19:06:46.778Z,3.23
2022-10-06T19:16:54.663Z,4.00
2022-10-06T19:26:59.593Z,3.40
2022-10-06T19:37:04.831Z,2.80
2022-10-06T19:47:09.153Z,2.33
2022-10-06T19:57:14.018Z,2.47
2022-10-06T20:07:16.995Z,2.07
2022-10-06T20:17:21.790Z,2.80
2022-10-06T20:27:24.745Z,2.20
2022-10-06T20:37:29.067Z,2.30
2022-10-06T20:47:31.957Z,1.90
2022-10-06T20:57:36.444Z,2.10
2022-10-06T21:07:39.609Z,1.70
2022-10-06T21:17:44.342Z,2.43
2022-10-06T21:27:48.285Z,2.20
2022-10-06T21:37:54.013Z,2.30
2022-10-06T21:47:57.043Z,2.07
2022-10-06T21:58:01.869Z,1.83
2022-10-06T22:08:04.922Z,2.23
2022-10-06T22:18:09.261Z,1.97
2022-10-06T22:28:12.396Z,1.60
2022-10-06T22:38:17.113Z,1.67
2022-10-06T22:48:20.102Z,1.60
2022-10-06T22:58:24.970Z,2.17
2022-10-06T23:08:34.208Z,2.33
2022-10-06T23:18:43.150Z,2.60
2022-10-06T23:28:47.380Z,1.83
2022-10-06T23:38:51.964Z,1.70
2022-10-06T23:48:54.861Z,2.80
2022-10-06T23:58:59.389Z,2.70
